sensor_id;sensor_type;location;lat;lon;timestamp;temperature;humidity
48768;DHT22;34933;40.968;14.538;2023-06-22T00:01:16;22.70;99.90
48768;DHT22;34933;40.968;14.538;2023-06-22T00:04:00;22.70;99.90
48768;DHT22;34933;40.968;14.538;2023-06-22T00:06:45;22.70;99.90
48768;DHT22;34933;40.968;14.538;2023-06-22T00:09:31;22.70;99.90
48768;DHT22;34933;40.968;14.538;2023-06-22T00:12:15;22.70;99.90
48768;DHT22;34933;40.968;14.538;2023-06-22T00:15:00;22.70;99.90
48768;DHT22;34933;40.968;14.538;2023-06-22T00:17:45;22.70;99.90
48768;DHT22;34933;40.968;14.538;2023-06-22T00:20:29;22.70;99.90
48768;DHT22;34933;40.968;14.538;2023-06-22T00:23:14;22.70;99.90
48768;DHT22;34933;40.968;14.538;2023-06-22T00:26:00;22.60;99.90
48768;DHT22;34933;40.968;14.538;2023-06-22T00:28:44;22.60;99.90
48768;DHT22;34933;40.968;14.538;2023-06-22T00:31:29;22.50;99.90
48768;DHT22;34933;40.968;14.538;2023-06-22T00:34:13;22.50;99.90
48768;DHT22;34933;40.968;14.538;2023-06-22T00:36:58;22.50;99.90
48768;DHT22;34933;40.968;14.538;2023-06-22T00:39:44;22.40;99.90
48768;DHT22;34933;40.968;14.538;2023-06-22T00:42:29;22.40;99.90
48768;DHT22;34933;40.968;14.538;2023-06-22T00:45:14;22.40;99.90
48768;DHT22;34933;40.968;14.538;2023-06-22T00:48:01;22.40;99.90
48768;DHT22;34933;40.968;14.538;2023-06-22T00:50:46;22.30;99.90
48768;DHT22;34933;40.968;14.538;2023-06-22T00:53:35;22.30;99.90
48768;DHT22;34933;40.968;14.538;2023-06-22T00:56:23;22.20;99.90
48768;DHT22;34933;40.968;14.538;2023-06-22T00:59:09;22.20;99.90
48768;DHT22;34933;40.968;14.538;2023-06-22T01:01:56;22.10;99.90
48768;DHT22;34933;40.968;14.538;2023-06-22T01:04:42;22.10;99.90
48768;DHT22;34933;40.968;14.538;2023-06-22T01:07:35;22.00;99.90
48768;DHT22;34933;40.968;14.538;2023-06-22T01:13:47;22.10;99.90
48768;DHT22;34933;40.968;14.538;2023-06-22T01:16:38;22.10;99.90
48768;DHT22;34933;40.968;14.538;2023-06-22T01:22:10;22.20;99.90
48768;DHT22;34933;40.968;14.538;2023-06-22T01:28:23;22.10;99.90
48768;DHT22;34933;40.968;14.538;2023-06-22T01:31:10;22.10;99.90
48768;DHT22;34933;40.968;14.538;2023-06-22T01:33:59;22.10;99.90
48768;DHT22;34933;40.968;14.538;2023-06-22T01:36:45;22.00;99.90
48768;DHT22;34933;40.968;14.538;2023-06-22T01:39:30;21.90;99.90
48768;DHT22;34933;40.968;14.538;2023-06-22T01:42:15;21.90;99.90
48768;DHT22;34933;40.968;14.538;2023-06-22T01:45:00;21.80;99.90
48768;DHT22;34933;40.968;14.538;2023-06-22T01:47:46;21.80;99.90
48768;DHT22;34933;40.968;14.538;2023-06-22T01:50:31;21.80;99.90
48768;DHT22;34933;40.968;14.538;2023-06-22T01:53:15;21.80;99.90
48768;DHT22;34933;40.968;14.538;2023-06-22T01:56:00;21.80;99.90
48768;DHT22;34933;40.968;14.538;2023-06-22T01:59:25;21.80;99.90
48768;DHT22;34933;40.968;14.538;2023-06-22T02:02:15;21.80;99.90
48768;DHT22;34933;40.968;14.538;2023-06-22T02:05:03;21.70;99.90
48768;DHT22;34933;40.968;14.538;2023-06-22T02:07:55;21.70;99.90
48768;DHT22;34933;40.968;14.538;2023-06-22T02:10:41;21.70;99.90
48768;DHT22;34933;40.968;14.538;2023-06-22T02:13:27;21.70;99.90
48768;DHT22;34933;40.968;14.538;2023-06-22T02:16:12;21.70;99.90
48768;DHT22;34933;40.968;14.538;2023-06-22T02:19:01;21.70;99.90
48768;DHT22;34933;40.968;14.538;2023-06-22T02:21:52;21.80;99.90
48768;DHT22;34933;40.968;14.538;2023-06-22T02:24:38;21.80;99.90
48768;DHT22;34933;40.968;14.538;2023-06-22T02:27:23;21.80;99.90
48768;DHT22;34933;40.968;14.538;2023-06-22T02:30:08;21.70;99.90
48768;DHT22;34933;40.968;14.538;2023-06-22T02:32:57;21.60;99.90
48768;DHT22;34933;40.968;14.538;2023-06-22T02:35:44;21.60;99.90
48768;DHT22;34933;40.968;14.538;2023-06-22T02:38:32;21.50;99.90
48768;DHT22;34933;40.968;14.538;2023-06-22T02:41:17;21.40;99.90
48768;DHT22;34933;40.968;14.538;2023-06-22T02:44:06;21.40;99.90
48768;DHT22;34933;40.968;14.538;2023-06-22T02:46:51;21.30;99.90
48768;DHT22;34933;40.968;14.538;2023-06-22T02:49:36;21.40;99.90
48768;DHT22;34933;40.968;14.538;2023-06-22T02:52:21;21.40;99.90
48768;DHT22;34933;40.968;14.538;2023-06-22T02:55:06;21.40;99.90
48768;DHT22;34933;40.968;14.538;2023-06-22T02:57:52;21.40;99.90
48768;DHT22;34933;40.968;14.538;2023-06-22T03:00:38;21.40;99.90
48768;DHT22;34933;40.968;14.538;2023-06-22T03:03:23;21.30;99.90
48768;DHT22;34933;40.968;14.538;2023-06-22T03:06:10;21.30;99.90
48768;DHT22;34933;40.968;14.538;2023-06-22T03:09:03;21.30;99.90
48768;DHT22;34933;40.968;14.538;2023-06-22T03:11:48;21.40;99.90
48768;DHT22;34933;40.968;14.538;2023-06-22T03:14:34;21.30;99.90
48768;DHT22;34933;40.968;14.538;2023-06-22T03:17:19;21.30;99.90
48768;DHT22;34933;40.968;14.538;2023-06-22T03:20:06;21.30;99.90
48768;DHT22;34933;40.968;14.538;2023-06-22T03:22:57;21.30;99.90
48768;DHT22;34933;40.968;14.538;2023-06-22T03:25:42;21.30;99.90
48768;DHT22;34933;40.968;14.538;2023-06-22T03:28:28;21.30;99.90
48768;DHT22;34933;40.968;14.538;2023-06-22T03:31:13;21.30;99.90
48768;DHT22;34933;40.968;14.538;2023-06-22T03:33:59;21.40;99.90
48768;DHT22;34933;40.968;14.538;2023-06-22T03:36:43;21.40;99.90
48768;DHT22;34933;40.968;14.538;2023-06-22T03:39:30;21.30;99.90
48768;DHT22;34933;40.968;14.538;2023-06-22T03:42:16;21.30;99.90
48768;DHT22;34933;40.968;14.538;2023-06-22T03:45:00;21.30;99.90
48768;DHT22;34933;40.968;14.538;2023-06-22T03:47:45;21.40;99.90
48768;DHT22;34933;40.968;14.538;2023-06-22T03:50:30;21.40;99.90
48768;DHT22;34933;40.968;14.538;2023-06-22T03:53:15;21.40;99.90
48768;DHT22;34933;40.968;14.538;2023-06-22T03:55:59;21.50;99.90
48768;DHT22;34933;40.968;14.538;2023-06-22T03:58:44;21.50;99.90
48768;DHT22;34933;40.968;14.538;2023-06-22T04:01:29;21.50;99.90
48768;DHT22;34933;40.968;14.538;2023-06-22T04:04:14;21.50;99.90
48768;DHT22;34933;40.968;14.538;2023-06-22T04:06:58;21.60;99.90
48768;DHT22;34933;40.968;14.538;2023-06-22T04:09:43;21.60;99.90
48768;DHT22;34933;40.968;14.538;2023-06-22T04:12:27;21.60;99.90
48768;DHT22;34933;40.968;14.538;2023-06-22T04:15:12;21.60;99.90
48768;DHT22;34933;40.968;14.538;2023-06-22T04:17:57;21.60;99.90
48768;DHT22;34933;40.968;14.538;2023-06-22T04:20:41;21.60;99.90
48768;DHT22;34933;40.968;14.538;2023-06-22T04:23:26;21.70;99.90
48768;DHT22;34933;40.968;14.538;2023-06-22T04:26:10;21.70;99.90
48768;DHT22;34933;40.968;14.538;2023-06-22T04:28:55;21.80;99.90
48768;DHT22;34933;40.968;14.538;2023-06-22T04:31:40;21.80;99.90
48768;DHT22;34933;40.968;14.538;2023-06-22T04:34:25;21.90;99.90
48768;DHT22;34933;40.968;14.538;2023-06-22T04:37:12;22.00;99.90
48768;DHT22;34933;40.968;14.538;2023-06-22T04:39:59;22.10;99.90
48768;DHT22;34933;40.968;14.538;2023-06-22T04:42:44;22.20;99.90
48768;DHT22;34933;40.968;14.538;2023-06-22T04:45:36;22.30;99.90
48768;DHT22;34933;40.968;14.538;2023-06-22T04:48:22;22.40;99.90
48768;DHT22;34933;40.968;14.538;2023-06-22T04:51:07;22.40;99.90
48768;DHT22;34933;40.968;14.538;2023-06-22T04:53:52;22.50;99.90
48768;DHT22;34933;40.968;14.538;2023-06-22T04:56:44;22.60;99.90
48768;DHT22;34933;40.968;14.538;2023-06-22T04:59:31;22.70;99.90
48768;DHT22;34933;40.968;14.538;2023-06-22T05:02:15;22.80;99.90
48768;DHT22;34933;40.968;14.538;2023-06-22T05:05:00;22.90;99.90
48768;DHT22;34933;40.968;14.538;2023-06-22T05:07:46;23.00;99.90
48768;DHT22;34933;40.968;14.538;2023-06-22T05:10:33;23.10;99.90
48768;DHT22;34933;40.968;14.538;2023-06-22T05:13:18;23.30;99.90
48768;DHT22;34933;40.968;14.538;2023-06-22T05:16:02;23.40;99.90
48768;DHT22;34933;40.968;14.538;2023-06-22T05:18:47;23.50;99.90
48768;DHT22;34933;40.968;14.538;2023-06-22T05:21:32;23.70;99.90
48768;DHT22;34933;40.968;14.538;2023-06-22T05:24:16;23.80;99.90
48768;DHT22;34933;40.968;14.538;2023-06-22T05:27:01;23.90;99.90
48768;DHT22;34933;40.968;14.538;2023-06-22T05:29:45;24.00;99.90
48768;DHT22;34933;40.968;14.538;2023-06-22T05:32:30;24.20;99.90
48768;DHT22;34933;40.968;14.538;2023-06-22T05:35:15;24.40;99.90
48768;DHT22;34933;40.968;14.538;2023-06-22T05:37:59;24.50;99.90
48768;DHT22;34933;40.968;14.538;2023-06-22T05:40:44;24.70;99.90
48768;DHT22;34933;40.968;14.538;2023-06-22T05:43:28;24.80;99.90
48768;DHT22;34933;40.968;14.538;2023-06-22T05:46:13;25.00;99.90
48768;DHT22;34933;40.968;14.538;2023-06-22T05:48:58;25.10;99.90
48768;DHT22;34933;40.968;14.538;2023-06-22T05:51:42;25.20;99.90
48768;DHT22;34933;40.968;14.538;2023-06-22T05:54:27;25.30;99.90
48768;DHT22;34933;40.968;14.538;2023-06-22T05:57:12;25.40;99.90
48768;DHT22;34933;40.968;14.538;2023-06-22T05:59:57;25.50;99.90
48768;DHT22;34933;40.968;14.538;2023-06-22T06:02:41;25.50;99.90
48768;DHT22;34933;40.968;14.538;2023-06-22T06:05:27;25.60;99.90
48768;DHT22;34933;40.968;14.538;2023-06-22T06:08:12;25.60;99.90
48768;DHT22;34933;40.968;14.538;2023-06-22T06:10:57;25.70;99.90
48768;DHT22;34933;40.968;14.538;2023-06-22T06:13:41;25.70;99.90
48768;DHT22;34933;40.968;14.538;2023-06-22T06:16:26;25.80;99.90
48768;DHT22;34933;40.968;14.538;2023-06-22T06:19:10;25.90;99.90
48768;DHT22;34933;40.968;14.538;2023-06-22T06:21:55;26.00;99.90
48768;DHT22;34933;40.968;14.538;2023-06-22T06:24:40;26.10;99.90
48768;DHT22;34933;40.968;14.538;2023-06-22T06:27:24;26.20;99.90
48768;DHT22;34933;40.968;14.538;2023-06-22T06:30:14;26.20;99.90
48768;DHT22;34933;40.968;14.538;2023-06-22T06:32:59;26.30;99.90
48768;DHT22;34933;40.968;14.538;2023-06-22T06:35:44;26.40;99.90
48768;DHT22;34933;40.968;14.538;2023-06-22T06:38:30;26.40;99.90
48768;DHT22;34933;40.968;14.538;2023-06-22T06:41:15;26.60;99.90
48768;DHT22;34933;40.968;14.538;2023-06-22T06:44:00;26.60;99.90
48768;DHT22;34933;40.968;14.538;2023-06-22T06:46:45;26.70;99.90
48768;DHT22;34933;40.968;14.538;2023-06-22T06:49:29;26.70;99.90
48768;DHT22;34933;40.968;14.538;2023-06-22T06:52:14;26.90;99.90
48768;DHT22;34933;40.968;14.538;2023-06-22T06:54:59;27.00;99.90
48768;DHT22;34933;40.968;14.538;2023-06-22T06:57:44;27.10;99.90
48768;DHT22;34933;40.968;14.538;2023-06-22T07:00:29;27.20;99.90
48768;DHT22;34933;40.968;14.538;2023-06-22T07:03:13;27.40;99.90
48768;DHT22;34933;40.968;14.538;2023-06-22T07:05:58;27.50;99.90
48768;DHT22;34933;40.968;14.538;2023-06-22T07:08:43;27.60;99.90
48768;DHT22;34933;40.968;14.538;2023-06-22T07:11:27;27.70;99.90
48768;DHT22;34933;40.968;14.538;2023-06-22T07:14:12;27.80;99.90
48768;DHT22;34933;40.968;14.538;2023-06-22T07:16:56;27.90;99.90
48768;DHT22;34933;40.968;14.538;2023-06-22T07:19:41;28.10;99.90
48768;DHT22;34933;40.968;14.538;2023-06-22T07:22:26;28.20;99.90
48768;DHT22;34933;40.968;14.538;2023-06-22T07:25:11;28.30;99.90
48768;DHT22;34933;40.968;14.538;2023-06-22T07:28:06;28.50;99.90
48768;DHT22;34933;40.968;14.538;2023-06-22T07:30:50;28.50;99.90
48768;DHT22;34933;40.968;14.538;2023-06-22T07:33:35;28.60;99.90
48768;DHT22;34933;40.968;14.538;2023-06-22T07:36:19;28.60;99.90
48768;DHT22;34933;40.968;14.538;2023-06-22T07:39:04;28.60;99.90
48768;DHT22;34933;40.968;14.538;2023-06-22T07:41:50;28.60;99.90
48768;DHT22;34933;40.968;14.538;2023-06-22T07:44:35;28.70;99.90
48768;DHT22;34933;40.968;14.538;2023-06-22T07:47:19;28.90;99.90
48768;DHT22;34933;40.968;14.538;2023-06-22T07:50:04;28.90;99.90
48768;DHT22;34933;40.968;14.538;2023-06-22T07:52:49;28.90;99.90
48768;DHT22;34933;40.968;14.538;2023-06-22T07:55:34;29.00;99.90
48768;DHT22;34933;40.968;14.538;2023-06-22T07:58:19;29.10;99.90
48768;DHT22;34933;40.968;14.538;2023-06-22T08:01:04;29.40;99.90
48768;DHT22;34933;40.968;14.538;2023-06-22T08:03:50;29.50;99.90
48768;DHT22;34933;40.968;14.538;2023-06-22T08:06:35;29.50;99.90
48768;DHT22;34933;40.968;14.538;2023-06-22T08:09:19;29.60;99.90
48768;DHT22;34933;40.968;14.538;2023-06-22T08:12:05;29.60;99.90
48768;DHT22;34933;40.968;14.538;2023-06-22T08:14:49;29.80;99.90
48768;DHT22;34933;40.968;14.538;2023-06-22T08:17:34;29.90;99.90
48768;DHT22;34933;40.968;14.538;2023-06-22T08:20:18;30.00;99.90
48768;DHT22;34933;40.968;14.538;2023-06-22T08:23:03;30.00;99.90
48768;DHT22;34933;40.968;14.538;2023-06-22T08:25:50;30.10;99.90
48768;DHT22;34933;40.968;14.538;2023-06-22T08:28:34;30.20;99.90
48768;DHT22;34933;40.968;14.538;2023-06-22T08:31:19;30.20;99.90
48768;DHT22;34933;40.968;14.538;2023-06-22T08:34:04;30.40;99.90
48768;DHT22;34933;40.968;14.538;2023-06-22T08:36:48;30.50;99.90
48768;DHT22;34933;40.968;14.538;2023-06-22T08:39:35;30.60;99.90
48768;DHT22;34933;40.968;14.538;2023-06-22T08:42:20;30.70;99.90
48768;DHT22;34933;40.968;14.538;2023-06-22T08:45:05;30.90;99.90
48768;DHT22;34933;40.968;14.538;2023-06-22T08:47:50;31.00;99.90
48768;DHT22;34933;40.968;14.538;2023-06-22T08:50:34;31.10;99.90
48768;DHT22;34933;40.968;14.538;2023-06-22T08:53:19;31.30;99.90
48768;DHT22;34933;40.968;14.538;2023-06-22T08:56:04;31.30;99.90
48768;DHT22;34933;40.968;14.538;2023-06-22T08:58:48;31.40;99.90
48768;DHT22;34933;40.968;14.538;2023-06-22T09:01:33;31.60;99.90
48768;DHT22;34933;40.968;14.538;2023-06-22T09:04:17;31.80;99.90
48768;DHT22;34933;40.968;14.538;2023-06-22T09:07:02;31.90;99.90
48768;DHT22;34933;40.968;14.538;2023-06-22T09:09:46;31.80;99.90
48768;DHT22;34933;40.968;14.538;2023-06-22T09:12:31;31.80;99.90
48768;DHT22;34933;40.968;14.538;2023-06-22T09:15:17;31.90;99.90
48768;DHT22;34933;40.968;14.538;2023-06-22T09:18:01;32.00;99.90
48768;DHT22;34933;40.968;14.538;2023-06-22T09:20:46;32.10;99.90
48768;DHT22;34933;40.968;14.538;2023-06-22T09:23:30;32.20;99.90
48768;DHT22;34933;40.968;14.538;2023-06-22T09:26:15;32.40;99.90
48768;DHT22;34933;40.968;14.538;2023-06-22T09:28:59;32.50;99.90
48768;DHT22;34933;40.968;14.538;2023-06-22T09:31:44;32.50;99.90
48768;DHT22;34933;40.968;14.538;2023-06-22T09:34:29;32.60;99.90
48768;DHT22;34933;40.968;14.538;2023-06-22T09:37:15;32.60;99.90
48768;DHT22;34933;40.968;14.538;2023-06-22T09:40:00;32.90;99.90
48768;DHT22;34933;40.968;14.538;2023-06-22T09:42:45;33.00;99.90
48768;DHT22;34933;40.968;14.538;2023-06-22T09:45:29;33.10;99.90
48768;DHT22;34933;40.968;14.538;2023-06-22T09:48:14;33.30;99.90
48768;DHT22;34933;40.968;14.538;2023-06-22T09:50:59;33.40;99.90
48768;DHT22;34933;40.968;14.538;2023-06-22T09:53:44;33.60;99.90
48768;DHT22;34933;40.968;14.538;2023-06-22T09:56:29;33.60;99.90
48768;DHT22;34933;40.968;14.538;2023-06-22T09:59:14;33.70;99.90
48768;DHT22;34933;40.968;14.538;2023-06-22T10:01:59;33.90;99.90
48768;DHT22;34933;40.968;14.538;2023-06-22T10:04:43;34.00;99.90
48768;DHT22;34933;40.968;14.538;2023-06-22T10:07:28;34.10;99.90
48768;DHT22;34933;40.968;14.538;2023-06-22T10:10:13;34.10;99.20
48768;DHT22;34933;40.968;14.538;2023-06-22T10:13:07;34.00;98.90
48768;DHT22;34933;40.968;14.538;2023-06-22T10:15:53;34.10;98.90
48768;DHT22;34933;40.968;14.538;2023-06-22T10:18:37;34.20;98.90
48768;DHT22;34933;40.968;14.538;2023-06-22T10:21:22;34.50;99.00
48768;DHT22;34933;40.968;14.538;2023-06-22T10:24:07;34.70;98.60
48768;DHT22;34933;40.968;14.538;2023-06-22T10:26:51;35.00;98.70
48768;DHT22;34933;40.968;14.538;2023-06-22T10:29:37;35.10;98.60
48768;DHT22;34933;40.968;14.538;2023-06-22T10:32:21;35.20;99.10
48768;DHT22;34933;40.968;14.538;2023-06-22T10:35:06;35.10;98.20
48768;DHT22;34933;40.968;14.538;2023-06-22T10:37:51;34.90;98.40
48768;DHT22;34933;40.968;14.538;2023-06-22T10:40:35;35.10;98.60
48768;DHT22;34933;40.968;14.538;2023-06-22T10:43:20;35.20;98.80
48768;DHT22;34933;40.968;14.538;2023-06-22T10:46:04;35.40;99.40
48768;DHT22;34933;40.968;14.538;2023-06-22T10:48:49;35.50;98.40
48768;DHT22;34933;40.968;14.538;2023-06-22T10:51:34;35.60;98.40
48768;DHT22;34933;40.968;14.538;2023-06-22T10:54:19;35.50;98.40
48768;DHT22;34933;40.968;14.538;2023-06-22T10:57:04;35.60;97.70
48768;DHT22;34933;40.968;14.538;2023-06-22T10:59:49;35.70;96.30
48768;DHT22;34933;40.968;14.538;2023-06-22T11:02:33;35.90;96.30
48768;DHT22;34933;40.968;14.538;2023-06-22T11:05:18;36.10;95.90
48768;DHT22;34933;40.968;14.538;2023-06-22T11:08:03;36.20;96.00
48768;DHT22;34933;40.968;14.538;2023-06-22T11:10:48;36.60;96.00
48768;DHT22;34933;40.968;14.538;2023-06-22T11:13:32;36.70;96.00
48768;DHT22;34933;40.968;14.538;2023-06-22T11:16:17;37.00;96.20
48768;DHT22;34933;40.968;14.538;2023-06-22T11:19:02;37.20;96.40
48768;DHT22;34933;40.968;14.538;2023-06-22T11:21:47;37.40;96.20
48768;DHT22;34933;40.968;14.538;2023-06-22T11:24:32;37.40;96.10
48768;DHT22;34933;40.968;14.538;2023-06-22T11:27:16;37.20;96.20
48768;DHT22;34933;40.968;14.538;2023-06-22T11:30:01;37.20;96.30
48768;DHT22;34933;40.968;14.538;2023-06-22T11:32:45;37.30;96.10
48768;DHT22;34933;40.968;14.538;2023-06-22T11:35:30;37.40;96.20
48768;DHT22;34933;40.968;14.538;2023-06-22T11:38:14;37.60;96.30
48768;DHT22;34933;40.968;14.538;2023-06-22T11:40:59;37.80;96.00
48768;DHT22;34933;40.968;14.538;2023-06-22T11:43:44;38.20;95.60
48768;DHT22;34933;40.968;14.538;2023-06-22T11:46:29;38.60;95.90
48768;DHT22;34933;40.968;14.538;2023-06-22T11:49:14;39.00;95.50
48768;DHT22;34933;40.968;14.538;2023-06-22T11:51:59;38.90;95.00
48768;DHT22;34933;40.968;14.538;2023-06-22T11:54:43;39.40;94.90
48768;DHT22;34933;40.968;14.538;2023-06-22T11:57:28;40.00;94.40
48768;DHT22;34933;40.968;14.538;2023-06-22T12:00:13;40.70;93.80
48768;DHT22;34933;40.968;14.538;2023-06-22T12:03:00;41.40;93.40
48768;DHT22;34933;40.968;14.538;2023-06-22T12:05:45;42.00;92.20
48768;DHT22;34933;40.968;14.538;2023-06-22T12:08:29;42.40;92.30
48768;DHT22;34933;40.968;14.538;2023-06-22T12:11:14;42.40;91.90
48768;DHT22;34933;40.968;14.538;2023-06-22T12:13:58;42.90;91.70
48768;DHT22;34933;40.968;14.538;2023-06-22T12:16:46;42.20;92.20
48768;DHT22;34933;40.968;14.538;2023-06-22T12:19:31;42.50;92.40
48768;DHT22;34933;40.968;14.538;2023-06-22T12:22:15;42.70;91.80
48768;DHT22;34933;40.968;14.538;2023-06-22T12:25:00;42.40;91.90
48768;DHT22;34933;40.968;14.538;2023-06-22T12:27:45;41.90;92.30
48768;DHT22;34933;40.968;14.538;2023-06-22T12:30:29;42.40;92.10
48768;DHT22;34933;40.968;14.538;2023-06-22T12:33:14;42.20;92.40
48768;DHT22;34933;40.968;14.538;2023-06-22T12:35:58;42.50;92.00
48768;DHT22;34933;40.968;14.538;2023-06-22T12:38:43;42.50;91.90
48768;DHT22;34933;40.968;14.538;2023-06-22T12:41:28;42.00;92.30
48768;DHT22;34933;40.968;14.538;2023-06-22T12:44:13;41.60;92.10
48768;DHT22;34933;40.968;14.538;2023-06-22T12:46:58;40.90;92.60
48768;DHT22;34933;40.968;14.538;2023-06-22T12:49:42;40.60;92.80
48768;DHT22;34933;40.968;14.538;2023-06-22T12:52:27;40.70;92.80
48768;DHT22;34933;40.968;14.538;2023-06-22T12:55:11;41.40;92.20
48768;DHT22;34933;40.968;14.538;2023-06-22T12:57:56;41.40;92.70
48768;DHT22;34933;40.968;14.538;2023-06-22T13:00:41;41.50;92.10
48768;DHT22;34933;40.968;14.538;2023-06-22T13:03:25;41.70;91.60
48768;DHT22;34933;40.968;14.538;2023-06-22T13:06:11;41.90;91.60
48768;DHT22;34933;40.968;14.538;2023-06-22T13:08:56;42.20;91.30
48768;DHT22;34933;40.968;14.538;2023-06-22T13:11:41;42.30;91.70
48768;DHT22;34933;40.968;14.538;2023-06-22T13:14:25;42.60;90.80
48768;DHT22;34933;40.968;14.538;2023-06-22T13:17:10;42.70;91.30
48768;DHT22;34933;40.968;14.538;2023-06-22T13:19:55;42.30;91.40
48768;DHT22;34933;40.968;14.538;2023-06-22T13:22:39;41.80;92.00
48768;DHT22;34933;40.968;14.538;2023-06-22T13:25:24;41.70;91.90
48768;DHT22;34933;40.968;14.538;2023-06-22T13:28:11;41.40;92.10
48768;DHT22;34933;40.968;14.538;2023-06-22T13:30:57;41.50;91.90
48768;DHT22;34933;40.968;14.538;2023-06-22T13:33:42;41.90;91.70
48768;DHT22;34933;40.968;14.538;2023-06-22T13:36:28;41.80;92.00
48768;DHT22;34933;40.968;14.538;2023-06-22T13:39:14;41.10;92.00
48768;DHT22;34933;40.968;14.538;2023-06-22T13:41:59;40.50;92.60
48768;DHT22;34933;40.968;14.538;2023-06-22T13:44:44;40.30;92.70
48768;DHT22;34933;40.968;14.538;2023-06-22T13:47:29;40.70;92.80
48768;DHT22;34933;40.968;14.538;2023-06-22T13:50:14;40.50;92.80
48768;DHT22;34933;40.968;14.538;2023-06-22T13:52:59;40.20;92.70
48768;DHT22;34933;40.968;14.538;2023-06-22T13:55:43;40.30;92.50
48768;DHT22;34933;40.968;14.538;2023-06-22T13:58:28;40.60;92.40
48768;DHT22;34933;40.968;14.538;2023-06-22T14:01:13;40.60;92.60
48768;DHT22;34933;40.968;14.538;2023-06-22T14:03:57;40.70;92.50
48768;DHT22;34933;40.968;14.538;2023-06-22T14:06:42;41.30;92.20
48768;DHT22;34933;40.968;14.538;2023-06-22T14:09:26;41.20;91.50
48768;DHT22;34933;40.968;14.538;2023-06-22T14:12:11;40.60;92.00
48768;DHT22;34933;40.968;14.538;2023-06-22T14:14:56;40.70;91.80
48768;DHT22;34933;40.968;14.538;2023-06-22T14:17:41;40.80;91.80
48768;DHT22;34933;40.968;14.538;2023-06-22T14:20:26;40.80;92.10
48768;DHT22;34933;40.968;14.538;2023-06-22T14:23:11;41.30;91.70
48768;DHT22;34933;40.968;14.538;2023-06-22T14:25:56;41.00;91.60
48768;DHT22;34933;40.968;14.538;2023-06-22T14:28:40;40.60;91.80
48768;DHT22;34933;40.968;14.538;2023-06-22T14:31:25;40.10;92.50
48768;DHT22;34933;40.968;14.538;2023-06-22T14:34:10;40.30;92.30
48768;DHT22;34933;40.968;14.538;2023-06-22T14:36:54;40.50;92.20
48768;DHT22;34933;40.968;14.538;2023-06-22T14:39:39;40.70;92.00
48768;DHT22;34933;40.968;14.538;2023-06-22T14:42:24;40.80;91.30
48768;DHT22;34933;40.968;14.538;2023-06-22T14:45:10;40.40;91.80
48768;DHT22;34933;40.968;14.538;2023-06-22T14:47:55;40.90;92.00
48768;DHT22;34933;40.968;14.538;2023-06-22T14:50:39;41.10;91.20
48768;DHT22;34933;40.968;14.538;2023-06-22T14:53:24;41.70;91.20
48768;DHT22;34933;40.968;14.538;2023-06-22T14:56:10;41.70;90.90
48768;DHT22;34933;40.968;14.538;2023-06-22T14:58:55;41.00;91.30
48768;DHT22;34933;40.968;14.538;2023-06-22T15:01:39;41.20;91.40
48768;DHT22;34933;40.968;14.538;2023-06-22T15:04:24;41.20;91.70
48768;DHT22;34933;40.968;14.538;2023-06-22T15:07:08;41.50;91.30
48768;DHT22;34933;40.968;14.538;2023-06-22T15:09:53;41.00;91.50
48768;DHT22;34933;40.968;14.538;2023-06-22T15:12:38;40.60;91.90
48768;DHT22;34933;40.968;14.538;2023-06-22T15:15:22;40.30;92.70
48768;DHT22;34933;40.968;14.538;2023-06-22T15:18:07;39.90;92.50
48768;DHT22;34933;40.968;14.538;2023-06-22T15:20:52;40.30;92.50
48768;DHT22;34933;40.968;14.538;2023-06-22T15:23:36;40.40;92.30
48768;DHT22;34933;40.968;14.538;2023-06-22T15:26:21;40.30;92.30
48768;DHT22;34933;40.968;14.538;2023-06-22T15:29:05;40.70;92.10
48768;DHT22;34933;40.968;14.538;2023-06-22T15:31:51;41.10;91.80
48768;DHT22;34933;40.968;14.538;2023-06-22T15:34:37;40.70;91.90
48768;DHT22;34933;40.968;14.538;2023-06-22T15:37:22;40.60;91.90
48768;DHT22;34933;40.968;14.538;2023-06-22T15:40:07;41.00;91.80
48768;DHT22;34933;40.968;14.538;2023-06-22T15:42:52;41.10;92.00
48768;DHT22;34933;40.968;14.538;2023-06-22T15:45:36;41.80;90.90
48768;DHT22;34933;40.968;14.538;2023-06-22T15:48:21;41.50;90.60
48768;DHT22;34933;40.968;14.538;2023-06-22T15:51:06;41.30;90.90
48768;DHT22;34933;40.968;14.538;2023-06-22T15:53:50;40.90;90.90
48768;DHT22;34933;40.968;14.538;2023-06-22T15:56:35;40.40;91.00
48768;DHT22;34933;40.968;14.538;2023-06-22T15:59:20;40.30;91.40
48768;DHT22;34933;40.968;14.538;2023-06-22T16:02:05;40.50;90.80
48768;DHT22;34933;40.968;14.538;2023-06-22T16:04:50;40.60;91.10
48768;DHT22;34933;40.968;14.538;2023-06-22T16:07:36;40.60;90.60
48768;DHT22;34933;40.968;14.538;2023-06-22T16:10:20;40.20;91.00
48768;DHT22;34933;40.968;14.538;2023-06-22T16:13:05;40.10;91.00
48768;DHT22;34933;40.968;14.538;2023-06-22T16:15:49;40.20;90.90
48768;DHT22;34933;40.968;14.538;2023-06-22T16:18:34;39.60;90.90
48768;DHT22;34933;40.968;14.538;2023-06-22T16:21:18;39.70;91.00
48768;DHT22;34933;40.968;14.538;2023-06-22T16:24:03;39.50;90.90
48768;DHT22;34933;40.968;14.538;2023-06-22T16:26:48;39.50;91.00
48768;DHT22;34933;40.968;14.538;2023-06-22T16:29:33;39.50;91.10
48768;DHT22;34933;40.968;14.538;2023-06-22T16:32:18;39.50;91.30
48768;DHT22;34933;40.968;14.538;2023-06-22T16:35:03;39.30;91.30
48768;DHT22;34933;40.968;14.538;2023-06-22T16:37:48;39.20;91.30
48768;DHT22;34933;40.968;14.538;2023-06-22T16:40:32;39.20;91.30
48768;DHT22;34933;40.968;14.538;2023-06-22T16:43:17;39.00;91.20
48768;DHT22;34933;40.968;14.538;2023-06-22T16:46:01;38.50;91.30
48768;DHT22;34933;40.968;14.538;2023-06-22T16:48:50;38.10;91.90
48768;DHT22;34933;40.968;14.538;2023-06-22T16:51:35;37.70;92.10
48768;DHT22;34933;40.968;14.538;2023-06-22T16:54:20;37.50;92.20
48768;DHT22;34933;40.968;14.538;2023-06-22T16:57:05;36.70;92.50
48768;DHT22;34933;40.968;14.538;2023-06-22T16:59:53;36.40;93.10
48768;DHT22;34933;40.968;14.538;2023-06-22T17:02:50;36.60;92.90
48768;DHT22;34933;40.968;14.538;2023-06-22T17:05:36;36.30;93.00
48768;DHT22;34933;40.968;14.538;2023-06-22T17:08:21;36.00;93.20
48768;DHT22;34933;40.968;14.538;2023-06-22T17:11:07;35.70;93.50
48768;DHT22;34933;40.968;14.538;2023-06-22T17:13:52;35.70;93.60
48768;DHT22;34933;40.968;14.538;2023-06-22T17:16:37;35.50;93.70